createdAt,value
2019-03-22T00:00:27.475Z,7.65
2019-03-22T00:02:57.164Z,7.12
2019-03-22T00:05:26.777Z,7.95
2019-03-22T00:07:56.420Z,7.12
2019-03-22T00:10:26.042Z,7.53
2019-03-22T00:12:55.673Z,8.13
2019-03-22T00:15:25.290Z,6.92
2019-03-22T00:17:54.938Z,6.90
2019-03-22T00:20:24.632Z,7.05
2019-03-22T00:22:54.271Z,7.12
2019-03-22T00:25:23.888Z,7.42
2019-03-22T00:27:53.529Z,6.87
2019-03-22T00:30:23.151Z,7.22
2019-03-22T00:32:54.074Z,7.53
2019-03-22T00:35:23.992Z,7.80
2019-03-22T00:37:53.612Z,7.33
2019-03-22T00:40:23.248Z,6.55
2019-03-22T00:42:52.866Z,6.85
2019-03-22T00:45:22.509Z,6.95
2019-03-22T00:47:52.134Z,6.58
2019-03-22T00:50:21.767Z,7.03
2019-03-22T00:52:51.401Z,7.58
2019-03-22T00:55:21.036Z,6.90
2019-03-22T00:57:50.658Z,7.42
2019-03-22T01:00:20.344Z,7.08
2019-03-22T01:02:49.982Z,7.47
2019-03-22T01:05:19.771Z,7.25
2019-03-22T01:07:49.554Z,7.40
2019-03-22T01:10:19.180Z,7.30
2019-03-22T01:12:48.825Z,6.97
2019-03-22T01:15:18.515Z,7.17
2019-03-22T01:17:48.153Z,6.72
2019-03-22T01:20:17.843Z,7.00
2019-03-22T01:22:47.484Z,6.58
2019-03-22T01:25:17.106Z,6.67
2019-03-22T01:27:46.747Z,6.72
2019-03-22T01:30:18.470Z,6.80
2019-03-22T01:32:48.198Z,6.40
2019-03-22T01:35:17.817Z,6.78
2019-03-22T01:37:47.434Z,7.42
2019-03-22T01:40:17.387Z,6.92
2019-03-22T01:42:47.070Z,6.80
2019-03-22T01:45:17.921Z,6.80
2019-03-22T01:47:47.546Z,7.17
2019-03-22T01:50:18.698Z,6.15
2019-03-22T01:52:48.309Z,7.05
2019-03-22T01:55:17.958Z,6.45
2019-03-22T01:57:53.743Z,6.50
2019-03-22T02:00:19.087Z,6.75
2019-03-22T02:02:48.712Z,6.78
2019-03-22T02:05:18.983Z,6.42
2019-03-22T02:07:48.601Z,6.60
2019-03-22T02:10:19.149Z,6.37
2019-03-22T02:12:48.830Z,6.97
2019-03-22T02:15:18.925Z,6.87
2019-03-22T02:17:48.542Z,6.72
2019-03-22T02:20:19.678Z,6.72
2019-03-22T02:22:49.361Z,6.20
2019-03-22T02:25:19.126Z,7.30
2019-03-22T02:27:48.770Z,6.55
2019-03-22T02:30:19.132Z,6.40
2019-03-22T02:32:48.775Z,6.22
2019-03-22T02:35:28.420Z,6.33
2019-03-22T02:37:49.830Z,6.58
2019-03-22T02:40:19.719Z,6.65
2019-03-22T02:42:49.359Z,6.15
2019-03-22T02:45:19.140Z,6.30
2019-03-22T02:47:48.858Z,6.33
2019-03-22T02:50:19.996Z,6.42
2019-03-22T02:52:49.835Z,6.75
2019-03-22T02:55:19.503Z,5.83
2019-03-22T02:57:49.167Z,6.22
2019-03-22T03:00:19.700Z,6.37
2019-03-22T03:02:49.322Z,6.10
2019-03-22T03:05:19.094Z,5.90
2019-03-22T03:07:48.819Z,5.60
2019-03-22T03:10:18.704Z,6.28
2019-03-22T03:12:48.457Z,6.05
2019-03-22T03:15:19.617Z,6.78
2019-03-22T03:17:49.285Z,6.20
2019-03-22T03:20:20.046Z,6.22
2019-03-22T03:22:49.651Z,6.58
2019-03-22T03:25:19.489Z,6.33
2019-03-22T03:27:49.203Z,6.33
2019-03-22T03:30:23.637Z,6.85
2019-03-22T03:32:53.251Z,6.15
2019-03-22T03:35:22.902Z,6.58
2019-03-22T03:37:52.505Z,6.92
2019-03-22T03:40:22.141Z,6.87
2019-03-22T03:42:51.825Z,5.90
2019-03-22T03:45:36.951Z,6.33
2019-03-22T03:48:09.824Z,6.35
2019-03-22T03:50:40.171Z,6.28
2019-03-22T03:53:10.087Z,6.65
2019-03-22T03:55:39.777Z,6.33
2019-03-22T03:58:09.495Z,6.10
2019-03-22T04:00:39.258Z,5.87
2019-03-22T04:03:08.903Z,5.80
2019-03-22T04:05:38.512Z,6.22
2019-03-22T04:08:08.148Z,6.08
2019-03-22T04:10:37.766Z,6.33
2019-03-22T04:13:07.405Z,5.85
2019-03-22T04:15:37.090Z,5.83
2019-03-22T04:18:06.753Z,6.12
2019-03-22T04:20:36.363Z,6.10
2019-03-22T04:23:05.996Z,5.75
2019-03-22T04:25:35.617Z,5.47
2019-03-22T04:28:05.251Z,5.62
2019-03-22T04:30:34.930Z,5.50
2019-03-22T04:33:06.652Z,5.70
2019-03-22T04:35:35.916Z,6.75
2019-03-22T04:38:05.574Z,6.60
2019-03-22T04:40:35.191Z,5.60
2019-03-22T04:43:04.866Z,6.05
2019-03-22T04:45:37.614Z,6.25
2019-03-22T04:48:14.286Z,6.25
2019-03-22T04:50:46.409Z,5.80
2019-03-22T04:53:21.957Z,6.33
2019-03-22T04:55:56.463Z,7.05
2019-03-22T04:58:28.238Z,6.65
2019-03-22T05:01:01.159Z,6.45
2019-03-22T05:03:33.816Z,6.12
2019-03-22T05:06:05.870Z,6.12
2019-03-22T05:08:39.874Z,6.33
2019-03-22T05:11:12.895Z,6.45
2019-03-22T05:13:46.841Z,5.87
2019-03-22T05:16:20.177Z,5.35
2019-03-22T05:18:52.519Z,6.10
2019-03-22T05:21:26.854Z,6.15
2019-03-22T05:24:01.463Z,6.17
2019-03-22T05:26:36.123Z,6.37
2019-03-22T05:29:09.194Z,5.70
2019-03-22T05:31:48.552Z,5.85
2019-03-22T05:34:18.221Z,6.90
2019-03-22T05:36:47.830Z,6.22
2019-03-22T05:39:17.443Z,5.90
2019-03-22T05:41:47.095Z,6.55
2019-03-22T05:44:16.711Z,6.08
2019-03-22T05:46:48.841Z,6.17
2019-03-22T05:49:17.770Z,5.87
2019-03-22T05:51:47.410Z,6.30
2019-03-22T05:54:17.027Z,6.40
2019-03-22T05:56:46.675Z,6.05
2019-03-22T05:59:16.373Z,6.08
2019-03-22T06:01:49.057Z,6.28
2019-03-22T06:04:18.673Z,6.55
2019-03-22T06:06:48.329Z,6.30
2019-03-22T06:09:17.944Z,6.12
2019-03-22T06:11:47.559Z,6.22
2019-03-22T06:14:17.202Z,11.60
2019-03-22T06:16:46.820Z,7.08
2019-03-22T06:19:16.462Z,7.22
2019-03-22T06:21:46.075Z,6.30
2019-03-22T06:24:15.717Z,7.40
2019-03-22T06:26:45.332Z,7.30
2019-03-22T06:29:14.970Z,7.22
2019-03-22T06:31:44.598Z,8.18
2019-03-22T06:34:14.253Z,7.45
2019-03-22T06:36:43.868Z,7.97
2019-03-22T06:39:13.485Z,7.65
2019-03-22T06:41:43.129Z,7.40
2019-03-22T06:44:12.754Z,7.30
2019-03-22T06:46:42.470Z,7.95
2019-03-22T06:49:12.098Z,7.55
2019-03-22T06:51:41.734Z,7.90
2019-03-22T06:54:11.349Z,7.53
2019-03-22T06:56:40.990Z,6.87
2019-03-22T06:59:10.612Z,7.37
2019-03-22T07:01:40.245Z,7.50
2019-03-22T07:04:09.873Z,7.53
2019-03-22T07:06:39.531Z,7.70
2019-03-22T07:09:09.435Z,7.10
2019-03-22T07:11:41.689Z,7.80
2019-03-22T07:14:10.488Z,7.62
2019-03-22T07:16:40.094Z,7.70
2019-03-22T07:19:09.804Z,7.87
2019-03-22T07:21:39.440Z,7.03
2019-03-22T07:24:09.085Z,7.97
2019-03-22T07:26:38.773Z,7.92
2019-03-22T07:29:08.423Z,7.75
2019-03-22T07:31:38.032Z,6.65
2019-03-22T07:34:07.673Z,6.70
2019-03-22T07:36:37.293Z,8.00
2019-03-22T07:39:09.198Z,7.72
2019-03-22T07:41:38.820Z,7.17
2019-03-22T07:44:08.538Z,7.17
2019-03-22T07:46:38.298Z,7.53
2019-03-22T07:49:07.982Z,8.05
2019-03-22T07:51:37.628Z,8.25
2019-03-22T07:54:07.312Z,8.15
2019-03-22T07:56:36.951Z,7.67
2019-03-22T07:59:06.565Z,7.85
2019-03-22T08:01:36.208Z,8.23
2019-03-22T08:04:08.423Z,8.05
2019-03-22T08:06:37.262Z,8.33
2019-03-22T08:09:09.216Z,7.62
2019-03-22T08:11:39.792Z,8.08
2019-03-22T08:14:09.520Z,8.45
2019-03-22T08:16:39.233Z,9.43
2019-03-22T08:19:08.841Z,7.90
2019-03-22T08:21:38.465Z,10.78
2019-03-22T08:24:08.101Z,8.45
2019-03-22T08:26:37.717Z,7.37
2019-03-22T08:29:07.360Z,8.30
2019-03-22T08:31:36.976Z,9.20
2019-03-22T08:34:07.882Z,9.05
2019-03-22T08:36:37.592Z,10.55
2019-03-22T08:39:09.499Z,10.43
2019-03-22T08:41:39.462Z,9.58
2019-03-22T08:44:09.175Z,8.80
2019-03-22T08:46:38.794Z,8.63
2019-03-22T08:49:09.591Z,8.83
2019-03-22T08:51:39.578Z,8.73
2019-03-22T08:54:09.224Z,8.83
2019-03-22T08:56:38.863Z,8.55
2019-03-22T08:59:08.483Z,8.45
2019-03-22T09:01:38.131Z,9.35
2019-03-22T09:04:07.826Z,8.98
2019-03-22T09:06:37.460Z,7.75
2019-03-22T09:09:08.552Z,8.50
2019-03-22T09:11:38.278Z,8.13
2019-03-22T09:14:07.885Z,8.50
2019-03-22T09:16:37.696Z,8.58
2019-03-22T09:19:07.323Z,8.50
2019-03-22T09:21:37.011Z,7.65
2019-03-22T09:24:06.640Z,9.03
2019-03-22T09:26:47.054Z,9.13
2019-03-22T09:29:07.661Z,8.38
2019-03-22T09:31:37.277Z,8.40
2019-03-22T09:34:08.580Z,8.30
2019-03-22T09:36:38.258Z,8.95
2019-03-22T09:39:09.307Z,9.85
2019-03-22T09:41:38.926Z,9.00
2019-03-22T09:44:08.659Z,10.15
2019-03-22T09:46:38.273Z,9.63
2019-03-22T09:49:07.895Z,10.20
2019-03-22T09:51:37.543Z,9.65
2019-03-22T09:54:07.278Z,10.20
2019-03-22T09:56:46.405Z,9.60
2019-03-22T09:59:08.258Z,10.08
2019-03-22T10:01:37.878Z,9.43
2019-03-22T10:04:07.539Z,10.72
2019-03-22T10:06:37.252Z,10.63
2019-03-22T10:09:08.452Z,11.20
2019-03-22T10:11:38.152Z,10.45
2019-03-22T10:14:07.826Z,11.05
2019-03-22T10:16:37.601Z,10.13
2019-03-22T10:19:07.227Z,11.03
2019-03-22T10:21:36.917Z,12.55
2019-03-22T10:24:06.629Z,12.15
2019-03-22T10:26:36.314Z,10.90
2019-03-22T10:29:07.111Z,11.08
2019-03-22T10:31:37.882Z,12.15
2019-03-22T10:34:07.695Z,11.63
2019-03-22T10:36:37.334Z,12.00
2019-03-22T10:39:09.405Z,12.68
2019-03-22T10:41:39.189Z,12.03
2019-03-22T10:44:08.886Z,11.50
2019-03-22T10:46:38.529Z,11.78
2019-03-22T10:49:08.274Z,12.47
2019-03-22T10:51:38.117Z,11.90
2019-03-22T10:54:08.006Z,10.53
2019-03-22T10:56:37.659Z,12.55
2019-03-22T10:59:07.319Z,12.35
2019-03-22T11:01:46.765Z,12.47
2019-03-22T11:06:38.008Z,12.47
2019-03-22T11:09:09.100Z,14.80
2019-03-22T11:11:38.735Z,12.85
2019-03-22T11:14:08.370Z,12.78
2019-03-22T11:16:38.092Z,13.13
2019-03-22T11:19:07.786Z,14.95
2019-03-22T11:21:37.442Z,12.78
2019-03-22T11:24:08.707Z,13.18
2019-03-22T11:26:38.367Z,12.90
2019-03-22T11:29:08.571Z,12.80
2019-03-22T11:31:40.076Z,14.00
2019-03-22T11:34:09.652Z,12.82
2019-03-22T11:36:39.373Z,18.52
2019-03-22T11:39:15.870Z,15.70
2019-03-22T11:41:45.196Z,13.83
2019-03-22T11:44:14.892Z,14.00
2019-03-22T11:46:44.683Z,13.38
2019-03-22T11:49:14.313Z,15.53
2019-03-22T11:51:44.037Z,15.70
2019-03-22T11:54:13.731Z,14.18
2019-03-22T11:56:43.400Z,13.88
2019-03-22T11:59:13.033Z,16.52
2019-03-22T12:01:42.663Z,15.00
2019-03-22T12:04:12.314Z,13.65
2019-03-22T12:06:41.945Z,13.43
2019-03-22T12:09:12.326Z,14.15
2019-03-22T12:11:42.221Z,13.25
2019-03-22T12:14:11.990Z,14.43
2019-03-22T12:16:41.620Z,14.05
2019-03-22T12:19:11.277Z,14.25
2019-03-22T12:21:40.978Z,14.13
2019-03-22T12:24:10.628Z,14.15
2019-03-22T12:26:40.257Z,13.68
2019-03-22T12:29:09.913Z,13.08
2019-03-22T12:31:39.612Z,13.70
2019-03-22T12:34:09.278Z,14.75
2019-03-22T12:36:38.942Z,15.03
2019-03-22T12:39:09.351Z,13.90
2019-03-22T12:41:39.003Z,12.45
2019-03-22T12:44:08.630Z,12.93
2019-03-22T12:46:38.280Z,12.73
2019-03-22T12:49:07.979Z,12.55
2019-03-22T12:51:37.632Z,12.25
2019-03-22T12:54:08.905Z,13.90
2019-03-22T12:56:38.560Z,13.55
2019-03-22T12:59:08.177Z,13.30
2019-03-22T13:01:37.910Z,12.43
2019-03-22T13:04:07.532Z,14.50
2019-03-22T13:06:37.232Z,13.75
2019-03-22T13:09:09.299Z,14.78
2019-03-22T13:11:39.004Z,13.80
2019-03-22T13:14:08.656Z,14.30
2019-03-22T13:16:38.286Z,13.68
2019-03-22T13:19:07.943Z,13.72
2019-03-22T13:21:37.574Z,13.35
2019-03-22T13:24:08.864Z,12.58
2019-03-22T13:26:38.493Z,12.75
2019-03-22T13:29:08.155Z,12.88
2019-03-22T13:31:37.784Z,12.20
2019-03-22T13:34:07.440Z,12.25
2019-03-22T13:36:37.060Z,12.85
2019-03-22T13:39:08.453Z,11.80
2019-03-22T13:41:38.074Z,12.25
2019-03-22T13:44:07.731Z,11.78
2019-03-22T13:46:40.569Z,11.95
2019-03-22T13:49:08.882Z,12.50
2019-03-22T13:51:38.510Z,12.13
2019-03-22T13:54:10.847Z,11.78
2019-03-22T13:56:40.478Z,11.88
2019-03-22T13:59:10.110Z,11.63
2019-03-22T14:01:39.765Z,11.65
2019-03-22T14:04:09.394Z,11.33
2019-03-22T14:06:39.050Z,12.37
2019-03-22T14:09:09.444Z,11.78
2019-03-22T14:11:39.166Z,11.33
2019-03-22T14:14:10.332Z,11.55
2019-03-22T14:16:39.984Z,10.68
2019-03-22T14:19:09.615Z,12.35
2019-03-22T14:21:39.270Z,10.85
2019-03-22T14:24:08.900Z,12.07
2019-03-22T14:26:38.555Z,11.68
2019-03-22T14:29:08.184Z,10.35
2019-03-22T14:31:37.833Z,11.22
2019-03-22T14:34:11.676Z,10.68
2019-03-22T14:36:41.352Z,11.33
2019-03-22T14:39:11.052Z,12.00
2019-03-22T14:41:40.681Z,10.85
2019-03-22T14:44:10.342Z,11.40
2019-03-22T14:46:39.971Z,11.10
2019-03-22T14:49:09.625Z,11.35
2019-03-22T14:51:39.251Z,11.50
2019-03-22T14:54:08.906Z,11.63
2019-03-22T14:56:38.535Z,11.65
2019-03-22T14:59:08.196Z,12.20
2019-03-22T15:01:37.827Z,11.10
2019-03-22T15:04:10.354Z,11.63
2019-03-22T15:06:40.077Z,10.88
2019-03-22T15:09:09.731Z,11.25
2019-03-22T15:11:39.361Z,11.83
2019-03-22T15:14:13.351Z,11.00
2019-03-22T15:16:53.499Z,11.45
2019-03-22T15:19:34.971Z,11.10
2019-03-22T15:22:12.107Z,10.28
2019-03-22T15:24:49.252Z,11.40
2019-03-22T15:27:23.239Z,10.72
2019-03-22T15:29:54.536Z,10.90
2019-03-22T15:32:37.559Z,10.70
2019-03-22T15:37:57.199Z,10.45
2019-03-22T15:40:26.855Z,11.45
2019-03-22T15:42:56.483Z,12.88
2019-03-22T15:45:26.567Z,12.13
2019-03-22T15:47:56.197Z,12.63
2019-03-22T15:50:25.895Z,12.53
2019-03-22T15:52:55.550Z,12.37
2019-03-22T15:55:25.174Z,14.05
2019-03-22T15:57:54.837Z,13.30
2019-03-22T16:00:24.461Z,12.90
2019-03-22T16:02:54.118Z,12.50
2019-03-22T16:05:23.810Z,13.35
2019-03-22T16:07:53.537Z,13.48
2019-03-22T16:10:23.163Z,13.83
2019-03-22T16:12:52.833Z,12.45
2019-03-22T16:15:22.461Z,13.55
2019-03-22T16:17:52.093Z,13.55
2019-03-22T16:20:21.751Z,13.25
2019-03-22T16:22:51.374Z,13.15
2019-03-22T16:25:21.033Z,13.72
2019-03-22T16:27:50.733Z,13.35
2019-03-22T16:30:20.724Z,13.18
2019-03-22T16:32:50.360Z,13.25
2019-03-22T16:35:20.115Z,13.85
2019-03-22T16:37:49.740Z,13.38
2019-03-22T16:40:24.087Z,14.30
2019-03-22T16:42:50.967Z,14.18
2019-03-22T16:45:38.968Z,14.10
2019-03-22T16:48:08.836Z,14.47
2019-03-22T16:50:38.642Z,14.80
2019-03-22T16:53:08.340Z,15.28
2019-03-22T16:55:37.973Z,15.00
2019-03-22T16:58:07.763Z,15.45
2019-03-22T17:00:37.710Z,16.07
2019-03-22T17:03:08.001Z,14.75
2019-03-22T17:05:37.835Z,14.95
2019-03-22T17:08:07.555Z,14.03
2019-03-22T17:10:37.254Z,13.80
2019-03-22T17:13:07.111Z,14.78
2019-03-22T17:15:36.736Z,14.43
2019-03-22T17:18:06.910Z,15.13
2019-03-22T17:20:36.609Z,15.05
2019-03-22T17:23:06.262Z,15.50
2019-03-22T17:25:35.963Z,15.35
2019-03-22T17:28:05.686Z,13.58
2019-03-22T17:30:35.310Z,15.05
2019-03-22T17:33:05.105Z,15.83
2019-03-22T17:35:34.729Z,16.85
2019-03-22T17:38:04.558Z,14.38
2019-03-22T17:40:34.186Z,13.60
2019-03-22T17:43:03.886Z,14.33
2019-03-22T17:45:33.604Z,14.70
2019-03-22T17:48:03.232Z,13.60
2019-03-22T17:50:33.836Z,14.00
2019-03-22T17:53:03.469Z,14.15
2019-03-22T17:55:33.124Z,12.65
2019-03-22T17:58:03.258Z,13.10
2019-03-22T18:00:32.913Z,14.95
2019-03-22T18:03:02.556Z,16.05
2019-03-22T18:05:32.205Z,13.58
2019-03-22T18:08:01.924Z,15.35
2019-03-22T18:10:32.068Z,13.60
2019-03-22T18:13:01.861Z,14.70
2019-03-22T18:15:31.516Z,13.65
2019-03-22T18:18:01.141Z,15.13
2019-03-22T18:20:30.866Z,16.42
2019-03-22T18:23:00.494Z,16.20
2019-03-22T18:25:30.218Z,17.10
2019-03-22T18:27:59.849Z,17.40
2019-03-22T18:30:29.519Z,15.80
2019-03-22T18:32:59.148Z,16.37
2019-03-22T18:35:28.771Z,16.20
2019-03-22T18:37:58.435Z,16.23
2019-03-22T18:40:28.067Z,14.73
2019-03-22T18:42:57.721Z,16.65
2019-03-22T18:45:27.355Z,17.57
2019-03-22T18:47:57.010Z,18.70
2019-03-22T18:50:26.641Z,18.75
2019-03-22T18:52:56.300Z,19.55
2019-03-22T18:55:25.929Z,19.55
2019-03-22T18:57:55.580Z,17.48
2019-03-22T19:00:25.197Z,20.52
2019-03-22T19:02:54.846Z,17.67
2019-03-22T19:05:24.476Z,19.35
2019-03-22T19:07:54.145Z,18.15
2019-03-22T19:10:23.809Z,17.10
2019-03-22T19:12:53.448Z,18.87
2019-03-22T19:15:23.095Z,18.85
2019-03-22T19:17:52.725Z,20.55
2019-03-22T19:20:22.389Z,20.15
2019-03-22T19:22:52.154Z,20.32
2019-03-22T19:25:21.809Z,20.60
2019-03-22T19:27:51.442Z,21.25
2019-03-22T19:30:21.100Z,21.20
2019-03-22T19:32:50.727Z,20.88
2019-03-22T19:35:20.451Z,21.60
2019-03-22T19:37:50.153Z,20.55
2019-03-22T19:40:19.901Z,20.23
2019-03-22T19:42:49.545Z,20.02
2019-03-22T19:45:19.239Z,19.27
2019-03-22T19:47:48.941Z,18.77
2019-03-22T19:50:18.716Z,22.82
2019-03-22T19:52:48.429Z,24.85
2019-03-22T19:55:18.064Z,25.00
2019-03-22T19:57:47.717Z,21.93
2019-03-22T20:00:22.004Z,22.45
2019-03-22T20:05:30.400Z,20.45
2019-03-22T20:08:00.679Z,20.65
2019-03-22T20:10:30.375Z,21.30
2019-03-22T20:13:00.208Z,20.82
2019-03-22T20:15:29.855Z,21.42
2019-03-22T20:17:59.492Z,22.00
2019-03-22T20:20:29.217Z,21.75
2019-03-22T20:22:58.844Z,22.42
2019-03-22T20:25:28.504Z,22.95
2019-03-22T20:27:58.152Z,22.48
2019-03-22T20:30:27.843Z,22.90
2019-03-22T20:32:57.529Z,20.68
2019-03-22T20:35:27.191Z,21.65
2019-03-22T20:37:56.816Z,20.72
2019-03-22T20:40:26.481Z,22.20
2019-03-22T20:42:56.197Z,20.82
2019-03-22T20:45:25.918Z,21.60
2019-03-22T20:47:55.555Z,20.60
2019-03-22T20:50:35.163Z,20.45
2019-03-22T20:52:56.547Z,21.12
2019-03-22T20:55:26.433Z,20.90
2019-03-22T20:57:56.075Z,20.20
2019-03-22T21:00:27.458Z,19.73
2019-03-22T21:02:57.255Z,20.15
2019-03-22T21:05:27.463Z,19.85
2019-03-22T21:07:57.203Z,19.23
2019-03-22T21:10:26.823Z,18.82
2019-03-22T21:12:56.690Z,21.30
2019-03-22T21:15:26.309Z,20.00
2019-03-22T21:17:56.001Z,20.08
2019-03-22T21:20:25.648Z,19.37
2019-03-22T21:22:55.267Z,20.20
2019-03-22T21:25:24.918Z,20.12
2019-03-22T21:27:54.539Z,19.37
2019-03-22T21:30:24.194Z,19.67
2019-03-22T21:32:53.816Z,20.05
2019-03-22T21:35:23.532Z,20.20
2019-03-22T21:37:53.162Z,20.70
2019-03-22T21:40:22.823Z,20.12
2019-03-22T21:42:52.446Z,18.77
2019-03-22T21:45:22.067Z,20.05
2019-03-22T21:47:51.711Z,19.15
2019-03-22T21:50:21.333Z,20.20
2019-03-22T21:52:50.982Z,19.87
2019-03-22T21:55:20.596Z,20.37
2019-03-22T21:57:50.244Z,20.77
2019-03-22T22:00:19.936Z,21.07
2019-03-22T22:02:49.577Z,19.77
2019-03-22T22:05:19.262Z,18.77
2019-03-22T22:07:48.977Z,18.67
2019-03-22T22:10:18.596Z,18.65
2019-03-22T22:12:48.277Z,18.42
2019-03-22T22:15:17.936Z,19.52
2019-03-22T22:17:47.557Z,17.67
2019-03-22T22:20:17.202Z,16.77
2019-03-22T22:22:46.823Z,19.65
2019-03-22T22:25:16.471Z,18.32
2019-03-22T22:27:46.094Z,18.00
2019-03-22T22:30:16.052Z,17.67
2019-03-22T22:32:45.665Z,17.32
2019-03-22T22:35:15.383Z,17.67
2019-03-22T22:37:45.009Z,17.92
2019-03-22T22:40:15.389Z,18.65
2019-03-22T22:42:45.014Z,17.50
2019-03-22T22:45:14.870Z,17.75
2019-03-22T22:47:44.489Z,18.02
2019-03-22T22:50:14.544Z,18.23
2019-03-22T22:52:44.162Z,18.55
2019-03-22T22:55:15.523Z,19.48
2019-03-22T22:57:45.167Z,18.02
2019-03-22T23:00:17.472Z,19.15
2019-03-22T23:02:47.180Z,19.27
2019-03-22T23:05:16.801Z,18.15
2019-03-22T23:07:46.449Z,17.92
2019-03-22T23:10:16.207Z,18.73
2019-03-22T23:12:45.855Z,18.87
2019-03-22T23:15:15.712Z,19.48
2019-03-22T23:17:45.359Z,18.82
2019-03-22T23:20:15.053Z,17.95
2019-03-22T23:22:44.695Z,17.57
2019-03-22T23:25:14.466Z,18.30
2019-03-22T23:27:44.083Z,17.87
2019-03-22T23:30:14.466Z,17.92
2019-03-22T23:32:44.089Z,17.02
2019-03-22T23:35:13.880Z,18.50
2019-03-22T23:37:43.500Z,18.35
2019-03-22T23:40:13.456Z,17.92
2019-03-22T23:42:43.077Z,16.48
2019-03-22T23:45:13.028Z,16.90
2019-03-22T23:47:42.641Z,16.60
2019-03-22T23:50:12.897Z,16.57
2019-03-22T23:52:42.514Z,16.55
2019-03-22T23:55:12.396Z,17.00
2019-03-22T23:57:42.010Z,16.95
